createdAt,value
2022-08-04T00:00:06.580Z,24.20
2022-08-04T00:02:47.175Z,24.10
2022-08-04T00:05:24.813Z,24.10
2022-08-04T00:08:01.021Z,24.10
2022-08-04T00:10:31.207Z,24.10
2022-08-04T00:13:01.373Z,24.00
2022-08-04T00:15:32.539Z,24.00
2022-08-04T00:18:01.977Z,24.10
2022-08-04T00:20:32.137Z,24.10
2022-08-04T00:23:01.472Z,24.10
2022-08-04T00:25:31.115Z,24.00
2022-08-04T00:28:01.128Z,24.00
2022-08-04T00:30:29.229Z,24.00
2022-08-04T00:32:57.960Z,24.00
2022-08-04T00:35:26.433Z,24.00
2022-08-04T00:37:55.709Z,24.00
2022-08-04T00:40:29.097Z,23.90
2022-08-04T00:43:11.979Z,23.90
2022-08-04T00:46:16.896Z,23.90
2022-08-04T00:49:23.344Z,23.90
2022-08-04T00:52:31.548Z,23.70
2022-08-04T00:55:06.975Z,23.90
2022-08-04T00:57:52.325Z,23.80
2022-08-04T01:00:22.150Z,23.80
2022-08-04T01:03:02.950Z,24.00
2022-08-04T01:05:39.383Z,23.80
2022-08-04T01:08:20.215Z,23.80
2022-08-04T01:10:56.891Z,24.00
2022-08-04T01:13:40.728Z,24.00
2022-08-04T01:16:11.745Z,24.00
2022-08-04T01:18:51.164Z,24.10
2022-08-04T01:21:53.461Z,24.10
2022-08-04T01:24:54.868Z,24.20
2022-08-04T01:27:28.695Z,24.20
2022-08-04T01:30:01.413Z,24.20
2022-08-04T01:32:33.241Z,24.20
2022-08-04T01:35:07.409Z,24.30
2022-08-04T01:37:50.597Z,24.20
2022-08-04T01:40:18.860Z,24.20
2022-08-04T01:42:47.537Z,24.30
2022-08-04T01:45:16.891Z,24.40
2022-08-04T01:47:50.955Z,24.30
2022-08-04T01:50:18.899Z,24.40
2022-08-04T01:52:50.946Z,24.30
2022-08-04T01:55:19.748Z,24.40
2022-08-04T01:57:51.000Z,24.40
2022-08-04T02:00:23.015Z,24.30
2022-08-04T02:02:51.649Z,24.10
2022-08-04T02:05:22.003Z,23.90
2022-08-04T02:08:11.603Z,24.10
2022-08-04T02:10:58.651Z,23.80
2022-08-04T02:13:32.936Z,23.60
2022-08-04T02:16:07.860Z,23.70
2022-08-04T02:18:47.788Z,23.80
2022-08-04T02:21:21.072Z,23.90
2022-08-04T02:23:57.783Z,23.90
2022-08-04T02:26:30.338Z,23.70
2022-08-04T02:29:09.665Z,23.70
2022-08-04T02:31:44.184Z,23.80
2022-08-04T02:34:21.828Z,23.90
2022-08-04T02:36:52.515Z,23.70
2022-08-04T02:39:22.145Z,23.60
2022-08-04T02:41:51.138Z,23.60
2022-08-04T02:44:22.843Z,23.70
2022-08-04T02:46:54.018Z,23.70
2022-08-04T02:49:23.416Z,23.60
2022-08-04T02:51:53.258Z,23.40
2022-08-04T02:54:32.870Z,23.30
2022-08-04T02:57:04.552Z,23.40
2022-08-04T02:59:48.604Z,23.40
2022-08-04T03:02:25.789Z,23.40
2022-08-04T03:05:01.572Z,23.30
2022-08-04T03:08:00.572Z,23.50
2022-08-04T03:11:04.773Z,23.30
2022-08-04T03:13:47.781Z,23.30
2022-08-04T03:16:38.662Z,23.40
2022-08-04T03:19:44.956Z,23.30
2022-08-04T03:23:13.843Z,23.30
2022-08-04T03:26:21.524Z,23.20
2022-08-04T03:29:38.507Z,23.50
2022-08-04T03:32:44.847Z,23.60
2022-08-04T03:35:43.576Z,23.50
2022-08-04T03:38:42.567Z,23.50
2022-08-04T03:41:51.569Z,23.30
2022-08-04T03:44:54.673Z,23.40
2022-08-04T03:47:44.501Z,23.50
2022-08-04T03:50:41.556Z,23.30
2022-08-04T03:53:33.240Z,23.30
2022-08-04T03:56:27.496Z,23.30
2022-08-04T03:59:24.800Z,23.00
2022-08-04T04:02:41.106Z,23.00
2022-08-04T04:05:59.013Z,23.00
2022-08-04T04:08:42.508Z,22.90
2022-08-04T04:11:56.665Z,23.20
2022-08-04T04:14:48.601Z,23.40
2022-08-04T04:17:40.679Z,23.10
2022-08-04T04:20:34.427Z,23.20
2022-08-04T04:23:11.803Z,23.60
2022-08-04T04:25:56.775Z,23.60
2022-08-04T04:29:02.857Z,23.70
2022-08-04T04:31:44.011Z,23.70
2022-08-04T04:34:23.836Z,23.70
2022-08-04T04:37:14.816Z,23.80
2022-08-04T04:39:58.829Z,23.90
2022-08-04T04:42:54.272Z,23.90
2022-08-04T04:45:26.956Z,24.00
2022-08-04T04:48:09.739Z,24.00
2022-08-04T04:50:48.298Z,24.00
2022-08-04T04:53:25.173Z,24.00
2022-08-04T04:56:00.564Z,24.00
2022-08-04T04:58:33.880Z,24.10
2022-08-04T05:01:31.261Z,24.20
2022-08-04T05:04:24.829Z,24.10
2022-08-04T05:07:17.767Z,24.10
2022-08-04T05:10:00.996Z,24.10
2022-08-04T05:14:32.673Z,24.20
2022-08-04T05:15:38.342Z,24.30
2022-08-04T05:18:09.405Z,24.30
2022-08-04T05:20:42.793Z,24.20
2022-08-04T05:23:16.400Z,24.20
2022-08-04T05:25:50.059Z,24.10
2022-08-04T05:28:33.242Z,24.20
2022-08-04T05:31:06.298Z,24.20
2022-08-04T05:33:40.703Z,24.30
2022-08-04T05:36:21.768Z,24.40
2022-08-04T05:39:03.145Z,24.50
2022-08-04T05:41:32.392Z,24.50
2022-08-04T05:44:15.659Z,24.30
2022-08-04T05:46:53.580Z,24.50
2022-08-04T05:49:23.954Z,24.60
2022-08-04T05:51:52.754Z,24.80
2022-08-04T05:54:22.810Z,24.80
2022-08-04T05:56:51.852Z,24.80
2022-08-04T05:59:20.505Z,24.80
2022-08-04T06:01:55.442Z,24.80
2022-08-04T06:04:28.822Z,24.70
2022-08-04T06:06:56.790Z,24.70
2022-08-04T06:09:24.628Z,24.70
2022-08-04T06:12:00.560Z,24.70
2022-08-04T06:14:39.479Z,24.70
2022-08-04T06:18:32.413Z,24.70
2022-08-04T06:20:17.886Z,24.70
2022-08-04T06:22:51.388Z,24.80
2022-08-04T06:25:26.329Z,24.80
2022-08-04T06:27:55.639Z,24.80
2022-08-04T06:30:26.765Z,24.80
2022-08-04T06:33:04.125Z,25.00
2022-08-04T06:35:34.511Z,25.00
2022-08-04T06:38:03.733Z,25.10
2022-08-04T06:40:34.046Z,25.00
2022-08-04T06:43:03.647Z,25.10
2022-08-04T06:45:34.204Z,25.10
2022-08-04T06:48:04.873Z,25.00
2022-08-04T06:51:25.590Z,25.00
2022-08-04T06:53:21.656Z,25.00
2022-08-04T06:55:51.183Z,25.10
2022-08-04T06:58:21.804Z,25.10
2022-08-04T07:00:50.340Z,25.10
2022-08-04T07:03:21.575Z,25.20
2022-08-04T07:05:50.314Z,25.20
2022-08-04T07:08:18.455Z,25.40
2022-08-04T07:10:47.317Z,25.40
2022-08-04T07:13:15.597Z,25.50
2022-08-04T07:15:45.866Z,25.50
2022-08-04T07:18:13.751Z,25.60
2022-08-04T07:20:43.926Z,25.70
2022-08-04T07:23:13.695Z,25.80
2022-08-04T07:26:00.615Z,26.00
2022-08-04T07:28:31.160Z,26.00
2022-08-04T07:30:59.631Z,26.10
2022-08-04T07:33:28.567Z,26.30
2022-08-04T07:36:04.885Z,26.30
2022-08-04T07:38:50.859Z,26.40
2022-08-04T07:41:38.321Z,26.60
2022-08-04T07:44:07.776Z,26.60
2022-08-04T07:46:36.006Z,26.60
2022-08-04T07:49:04.311Z,26.70
2022-08-04T07:51:35.256Z,26.80
2022-08-04T07:54:05.161Z,26.90
2022-08-04T07:56:33.818Z,27.20
2022-08-04T07:59:02.078Z,27.30
2022-08-04T08:01:30.055Z,27.20
2022-08-04T08:04:00.481Z,27.10
2022-08-04T08:06:33.326Z,26.90
2022-08-04T08:09:12.993Z,26.90
2022-08-04T08:12:36.982Z,26.80
2022-08-04T08:14:32.123Z,26.80
2022-08-04T08:17:01.429Z,26.80
2022-08-04T08:19:29.686Z,26.80
2022-08-04T08:21:59.136Z,26.80
2022-08-04T08:24:30.036Z,26.80
2022-08-04T08:26:58.107Z,26.90
2022-08-04T08:29:27.388Z,26.90
2022-08-04T08:32:01.371Z,26.90
2022-08-04T08:34:32.869Z,26.90
2022-08-04T08:37:08.667Z,27.00
2022-08-04T08:39:42.072Z,26.90
2022-08-04T08:42:42.264Z,27.00
2022-08-04T08:45:32.621Z,27.00
2022-08-04T08:48:41.745Z,27.10
2022-08-04T08:51:54.329Z,27.20
2022-08-04T08:54:55.183Z,27.10
2022-08-04T08:58:00.039Z,27.20
2022-08-04T09:00:42.891Z,27.20
2022-08-04T09:03:33.547Z,27.20
2022-08-04T09:06:17.928Z,27.20
2022-08-04T09:09:12.423Z,27.30
2022-08-04T09:11:49.655Z,27.50
2022-08-04T09:14:25.741Z,27.60
2022-08-04T09:16:57.897Z,27.70
2022-08-04T09:19:38.982Z,27.80
2022-08-04T09:22:14.376Z,27.90
2022-08-04T09:24:51.765Z,28.00
2022-08-04T09:27:25.354Z,28.00
2022-08-04T09:30:03.069Z,28.00
2022-08-04T09:32:41.284Z,28.10
2022-08-04T09:35:19.405Z,28.20
2022-08-04T09:37:58.934Z,28.20
2022-08-04T09:40:52.627Z,28.30
2022-08-04T09:43:59.011Z,28.30
2022-08-04T09:46:29.622Z,28.30
2022-08-04T09:49:02.677Z,28.40
2022-08-04T09:51:58.110Z,28.40
2022-08-04T09:54:34.576Z,28.40
2022-08-04T09:57:14.831Z,28.40
2022-08-04T09:59:49.548Z,28.40
2022-08-04T10:02:20.250Z,28.50
2022-08-04T10:04:50.204Z,28.50
2022-08-04T10:07:41.568Z,28.40
2022-08-04T10:10:20.079Z,28.40
2022-08-04T10:13:14.215Z,28.40
2022-08-04T10:15:50.591Z,28.40
2022-08-04T10:18:36.354Z,28.50
2022-08-04T10:21:13.618Z,28.40
2022-08-04T10:24:22.924Z,28.40
2022-08-04T10:26:57.496Z,28.30
2022-08-04T10:29:29.342Z,28.40
2022-08-04T10:32:05.062Z,28.30
2022-08-04T10:34:40.675Z,28.30
2022-08-04T10:37:19.970Z,28.30
2022-08-04T10:40:08.943Z,28.30
2022-08-04T10:42:42.978Z,28.40
2022-08-04T10:45:18.033Z,28.50
2022-08-04T10:47:55.322Z,28.60
2022-08-04T10:50:25.694Z,28.70
2022-08-04T10:53:00.129Z,28.70
2022-08-04T10:56:06.503Z,28.80
2022-08-04T10:58:24.940Z,28.80
2022-08-04T11:02:00.138Z,28.90
2022-08-04T11:04:26.929Z,28.90
2022-08-04T11:06:56.952Z,28.80
2022-08-04T11:09:25.022Z,28.90
2022-08-04T11:12:01.338Z,28.90
2022-08-04T11:14:37.116Z,28.90
2022-08-04T11:17:10.564Z,29.00
2022-08-04T11:19:52.845Z,28.90
2022-08-04T11:22:26.395Z,28.90
2022-08-04T11:25:02.770Z,28.80
2022-08-04T11:27:38.474Z,28.80
2022-08-04T11:30:08.923Z,28.80
2022-08-04T11:32:47.066Z,28.90
2022-08-04T11:35:33.269Z,28.90
2022-08-04T11:38:10.925Z,28.80
2022-08-04T11:40:55.847Z,28.90
2022-08-04T11:43:58.646Z,28.80
2022-08-04T11:46:31.433Z,28.80
2022-08-04T11:49:04.490Z,28.80
2022-08-04T11:51:35.581Z,28.90
2022-08-04T11:54:03.578Z,28.90
2022-08-04T11:56:36.655Z,28.90
2022-08-04T11:59:08.432Z,28.90
2022-08-04T12:01:48.474Z,29.00
2022-08-04T12:04:26.673Z,29.00
2022-08-04T12:07:29.936Z,29.00
2022-08-04T12:09:59.519Z,29.00
2022-08-04T12:12:35.808Z,29.00
2022-08-04T12:15:15.301Z,29.00
2022-08-04T12:17:53.898Z,29.00
2022-08-04T12:20:31.875Z,29.00
2022-08-04T12:23:16.611Z,29.00
2022-08-04T12:25:49.633Z,29.00
2022-08-04T12:28:25.846Z,29.00
2022-08-04T12:31:06.249Z,29.00
2022-08-04T12:34:03.863Z,29.00
2022-08-04T12:36:39.974Z,29.10
2022-08-04T12:39:13.439Z,29.10
2022-08-04T12:41:46.450Z,29.10
2022-08-04T12:44:37.338Z,29.00
2022-08-04T12:47:26.743Z,29.00
2022-08-04T12:50:00.320Z,28.80
2022-08-04T12:53:01.052Z,28.80
2022-08-04T12:55:22.087Z,28.70
2022-08-04T12:57:52.557Z,28.70
2022-08-04T13:00:39.977Z,28.60
2022-08-04T13:03:12.633Z,28.60
2022-08-04T13:05:42.566Z,28.50
2022-08-04T13:08:12.556Z,28.50
2022-08-04T13:10:44.796Z,28.40
2022-08-04T13:13:18.732Z,28.40
2022-08-04T13:15:57.675Z,28.40
2022-08-04T13:18:31.869Z,28.30
2022-08-04T13:21:20.452Z,28.30
2022-08-04T13:24:10.936Z,28.30
2022-08-04T13:26:54.497Z,28.30
2022-08-04T13:29:59.595Z,28.20
2022-08-04T13:32:18.140Z,28.30
2022-08-04T13:34:49.068Z,28.30
2022-08-04T13:37:26.056Z,28.20
2022-08-04T13:39:56.267Z,28.20
2022-08-04T13:42:27.761Z,28.20
2022-08-04T13:45:00.322Z,28.20
2022-08-04T13:47:31.185Z,28.20
2022-08-04T13:50:12.839Z,28.20
2022-08-04T13:52:42.181Z,28.20
2022-08-04T13:55:19.050Z,28.20
2022-08-04T13:57:52.722Z,28.20
2022-08-04T14:00:29.437Z,28.20
2022-08-04T14:03:02.637Z,28.20
2022-08-04T14:05:58.728Z,28.20
2022-08-04T14:08:24.882Z,28.10
2022-08-04T14:10:57.629Z,28.10
2022-08-04T14:13:41.378Z,28.10
2022-08-04T14:16:17.565Z,28.10
2022-08-04T14:18:45.529Z,28.10
2022-08-04T14:21:15.213Z,28.10
2022-08-04T14:23:47.700Z,28.10
2022-08-04T14:26:21.367Z,28.10
2022-08-04T14:29:28.473Z,28.10
2022-08-04T14:32:04.425Z,28.10
2022-08-04T14:34:41.492Z,28.10
2022-08-04T14:37:18.130Z,27.90
2022-08-04T14:40:18.317Z,27.80
2022-08-04T14:42:54.271Z,27.70
2022-08-04T14:45:32.894Z,27.60
2022-08-04T14:48:02.044Z,27.60
2022-08-04T14:50:38.260Z,27.70
2022-08-04T14:53:08.315Z,28.00
2022-08-04T14:55:37.373Z,28.20
2022-08-04T14:58:33.746Z,28.40
2022-08-04T15:00:57.128Z,28.50
2022-08-04T15:03:26.110Z,28.60
2022-08-04T15:06:05.136Z,28.60
2022-08-04T15:08:35.184Z,28.50
2022-08-04T15:11:03.752Z,28.30
2022-08-04T15:13:33.116Z,28.40
2022-08-04T15:16:07.400Z,28.50
2022-08-04T15:18:37.342Z,28.60
2022-08-04T15:21:05.859Z,28.60
2022-08-04T15:23:39.718Z,28.50
2022-08-04T15:26:13.099Z,28.20
2022-08-04T15:28:45.647Z,28.00
2022-08-04T15:32:03.832Z,28.10
2022-08-04T15:34:04.361Z,28.30
2022-08-04T15:36:38.860Z,28.30
2022-08-04T15:39:13.395Z,28.20
2022-08-04T15:41:54.982Z,28.20
2022-08-04T15:44:47.860Z,28.30
2022-08-04T15:47:17.360Z,28.40
2022-08-04T15:49:45.672Z,28.50
2022-08-04T15:52:15.864Z,28.70
2022-08-04T15:54:52.544Z,28.70
2022-08-04T15:57:59.595Z,28.80
2022-08-04T16:00:28.183Z,28.80
2022-08-04T16:02:57.352Z,28.80
2022-08-04T16:05:46.283Z,28.80
2022-08-04T16:08:17.802Z,28.90
2022-08-04T16:10:50.346Z,28.80
2022-08-04T16:13:20.679Z,28.80
2022-08-04T16:15:54.201Z,28.80
2022-08-04T16:18:43.594Z,28.70
2022-08-04T16:21:23.740Z,28.70
2022-08-04T16:24:21.415Z,28.60
2022-08-04T16:26:56.514Z,28.60
2022-08-04T16:29:29.852Z,28.50
2022-08-04T16:32:26.279Z,28.50
2022-08-04T16:34:59.703Z,28.60
2022-08-04T16:37:33.683Z,28.60
2022-08-04T16:40:35.388Z,28.50
2022-08-04T16:43:08.024Z,28.60
2022-08-04T16:45:47.787Z,28.60
2022-08-04T16:48:17.008Z,28.50
2022-08-04T16:51:06.507Z,28.40
2022-08-04T16:53:52.055Z,28.40
2022-08-04T16:56:29.994Z,28.30
2022-08-04T16:58:58.103Z,28.10
2022-08-04T17:01:33.444Z,28.10
2022-08-04T17:04:07.482Z,28.10
2022-08-04T17:06:41.276Z,28.10
2022-08-04T17:09:12.083Z,28.20
2022-08-04T17:11:40.724Z,28.20
2022-08-04T17:14:08.926Z,28.30
2022-08-04T17:16:40.848Z,28.30
2022-08-04T17:19:24.075Z,28.30
2022-08-04T17:22:04.047Z,28.30
2022-08-04T17:24:34.447Z,28.10
2022-08-04T17:27:04.217Z,28.00
2022-08-04T17:29:43.982Z,28.00
2022-08-04T17:32:18.556Z,27.90
2022-08-04T17:34:49.259Z,27.90
2022-08-04T17:37:39.672Z,27.90
2022-08-04T17:40:10.195Z,27.80
2022-08-04T17:42:40.292Z,27.80
2022-08-04T17:48:00.202Z,27.80
2022-08-04T17:50:29.521Z,27.60
2022-08-04T17:53:11.485Z,27.50
2022-08-04T17:55:46.911Z,27.60
2022-08-04T17:58:20.862Z,27.60
2022-08-04T18:01:16.388Z,27.50
2022-08-04T18:03:51.915Z,27.50
2022-08-04T18:06:21.154Z,27.50
2022-08-04T18:11:53.796Z,27.40
2022-08-04T18:14:26.050Z,27.30
2022-08-04T18:16:57.644Z,27.30
2022-08-04T18:19:25.519Z,27.40
2022-08-04T18:22:00.999Z,27.50
2022-08-04T18:24:36.009Z,27.40
2022-08-04T18:27:21.748Z,27.30
2022-08-04T18:30:15.472Z,27.30
2022-08-04T18:32:43.919Z,27.30
2022-08-04T18:35:25.452Z,27.30
2022-08-04T18:38:23.967Z,27.20
2022-08-04T18:40:54.585Z,27.30
2022-08-04T18:43:41.177Z,27.20
2022-08-04T18:46:14.696Z,27.20
2022-08-04T18:48:52.185Z,27.20
2022-08-04T18:51:23.892Z,27.30
2022-08-04T18:53:59.384Z,27.20
2022-08-04T18:56:32.553Z,27.10
2022-08-04T18:59:03.060Z,27.10
2022-08-04T19:02:09.149Z,27.00
2022-08-04T19:04:33.505Z,27.00
2022-08-04T19:07:28.645Z,27.00
2022-08-04T19:09:58.461Z,27.00
2022-08-04T19:12:29.140Z,26.80
2022-08-04T19:15:10.558Z,26.80
2022-08-04T19:17:54.067Z,26.80
2022-08-04T19:20:26.551Z,26.70
2022-08-04T19:24:26.407Z,26.80
2022-08-04T19:26:01.289Z,26.80
2022-08-04T19:28:35.524Z,26.70
2022-08-04T19:31:05.484Z,26.70
2022-08-04T19:36:28.402Z,26.50
2022-08-04T19:38:57.296Z,26.60
2022-08-04T19:41:26.547Z,26.60
2022-08-04T19:43:56.518Z,26.50
2022-08-04T19:46:25.626Z,26.40
2022-08-04T19:48:58.866Z,26.20
2022-08-04T19:51:29.226Z,26.10
2022-08-04T19:54:02.921Z,26.00
2022-08-04T19:56:40.930Z,25.90
2022-08-04T19:59:11.957Z,26.10
2022-08-04T20:01:45.276Z,26.10
2022-08-04T20:04:28.424Z,26.10
2022-08-04T20:06:59.356Z,26.10
2022-08-04T20:09:37.323Z,26.00
2022-08-04T20:12:06.377Z,26.10
2022-08-04T20:14:35.574Z,26.10
2022-08-04T20:17:10.657Z,25.90
2022-08-04T20:19:38.810Z,25.90
2022-08-04T20:22:51.266Z,26.00
2022-08-04T20:25:00.929Z,26.00
2022-08-04T20:27:51.791Z,25.90
2022-08-04T20:30:30.112Z,26.00
2022-08-04T20:32:59.947Z,25.90
2022-08-04T20:35:27.813Z,25.90
2022-08-04T20:38:00.374Z,25.80
2022-08-04T20:40:30.136Z,25.60
2022-08-04T20:42:58.149Z,25.60
2022-08-04T20:45:55.587Z,25.50
2022-08-04T20:48:15.666Z,25.30
2022-08-04T20:50:46.174Z,25.50
2022-08-04T20:53:17.094Z,25.50
2022-08-04T20:55:55.076Z,25.60
2022-08-04T21:01:11.489Z,25.50
2022-08-04T21:04:01.188Z,25.40
2022-08-04T21:06:29.568Z,25.30
2022-08-04T21:08:58.217Z,25.30
2022-08-04T21:11:32.762Z,25.30
2022-08-04T21:14:01.398Z,25.20
2022-08-04T21:16:55.487Z,25.10
2022-08-04T21:19:18.680Z,25.00
2022-08-04T21:21:53.261Z,25.10
2022-08-04T21:24:26.082Z,25.20
2022-08-04T21:26:56.530Z,25.00
2022-08-04T21:29:34.669Z,25.00
2022-08-04T21:32:03.853Z,25.00
2022-08-04T21:34:39.191Z,25.00
2022-08-04T21:37:09.984Z,25.00
2022-08-04T21:39:58.896Z,24.80
2022-08-04T21:42:28.861Z,24.60
2022-08-04T21:44:58.855Z,24.80
2022-08-04T21:47:26.808Z,25.00
2022-08-04T21:50:19.872Z,25.00
2022-08-04T21:52:49.728Z,24.90
2022-08-04T21:55:19.053Z,24.90
2022-08-04T21:57:48.510Z,24.90
2022-08-04T22:00:19.310Z,25.00
2022-08-04T22:02:53.322Z,24.90
2022-08-04T22:05:23.402Z,24.80
2022-08-04T22:07:52.019Z,24.80
2022-08-04T22:10:32.156Z,24.90
2022-08-04T22:13:06.856Z,24.90
2022-08-04T22:16:03.917Z,24.80
2022-08-04T22:18:24.480Z,24.80
2022-08-04T22:20:56.459Z,24.90
2022-08-04T22:23:25.377Z,24.90
2022-08-04T22:25:55.617Z,24.80
2022-08-04T22:28:28.106Z,24.50
2022-08-04T22:30:57.125Z,24.60
2022-08-04T22:33:53.886Z,24.70
2022-08-04T22:36:16.350Z,24.70
2022-08-04T22:38:50.363Z,24.70
2022-08-04T22:41:33.884Z,24.80
2022-08-04T22:44:15.350Z,24.60
2022-08-04T22:46:44.037Z,24.80
2022-08-04T22:49:13.604Z,24.80
2022-08-04T22:51:48.385Z,24.60
2022-08-04T22:54:18.664Z,24.80
2022-08-04T22:56:46.494Z,24.70
2022-08-04T22:59:14.832Z,24.60
2022-08-04T23:01:59.101Z,24.50
2022-08-04T23:04:28.298Z,24.60
2022-08-04T23:06:57.591Z,24.60
2022-08-04T23:09:26.882Z,24.40
2022-08-04T23:12:28.939Z,24.50
2022-08-04T23:14:58.160Z,24.70
2022-08-04T23:17:28.191Z,24.60
2022-08-04T23:19:58.177Z,24.80
2022-08-04T23:22:41.069Z,24.80
2022-08-04T23:25:15.295Z,24.60
2022-08-04T23:27:50.677Z,24.60
2022-08-04T23:30:21.965Z,24.70
2022-08-04T23:32:53.338Z,24.70
2022-08-04T23:35:21.997Z,24.90
2022-08-04T23:37:56.936Z,25.00
2022-08-04T23:40:34.149Z,24.90
2022-08-04T23:43:12.049Z,24.40
2022-08-04T23:46:04.502Z,24.60
2022-08-04T23:48:34.209Z,24.50
2022-08-04T23:51:13.768Z,24.50
2022-08-04T23:54:02.543Z,24.10
2022-08-04T23:56:32.745Z,23.40
2022-08-04T23:59:03.667Z,22.90
